Time;durP1;ratioP1;P1;durP2;ratioP2;P2;SDS_P1;SDS_P2;PMS_P1;PMS_P2;Temp;Humidity;BMP_temperature;BMP_pressure;BME280_temperature;BME280_humidity;BME280_pressure;Samples;Min_cycle;Max_cycle;Signal;HPM_P1;HPM_P2
2023/03/31 00:01:03;;;;;;;;;;;10.90;99.90;;;;;;5107111;28;19911;-66
2023/03/31 00:03:28;;;;;;;;;;;10.80;99.90;;;;;;5109736;28;19914;-66
2023/03/31 00:05:56;;;;;;;;;;;10.80;99.90;;;;;;5109734;28;19942;-66
2023/03/31 00:08:22;;;;;;;;;;;10.80;99.90;;;;;;5108249;28;20355;-66
2023/03/31 00:10:48;;;;;;;;;;;10.80;99.90;;;;;;5109195;28;19912;-66
2023/03/31 00:13:13;;;;;;;;;;;10.80;99.90;;;;;;5109460;28;19918;-66
2023/03/31 00:15:39;;;;;;;;;;;10.80;99.90;;;;;;5109328;28;19919;-66
2023/03/31 00:18:04;;;;;;;;;;;10.80;99.90;;;;;;5109030;28;19915;-66
2023/03/31 00:20:32;;;;;;;;;;;10.70;99.90;;;;;;5107355;28;19926;-66
2023/03/31 00:23:00;;;;;;;;;;;10.70;99.90;;;;;;5102146;28;20053;-66
2023/03/31 00:25:26;;;;;;;;;;;10.70;99.90;;;;;;5090807;28;19916;-66
2023/03/31 00:27:51;;;;;;;;;;;10.70;99.90;;;;;;5108686;28;19922;-66
2023/03/31 00:30:17;;;;;;;;;;;10.70;99.90;;;;;;5109256;28;19918;-66
2023/03/31 00:32:42;;;;;;;;;;;10.70;99.90;;;;;;5109362;28;20341;-66
2023/03/31 00:35:08;;;;;;;;;;;10.70;99.90;;;;;;5109337;28;19918;-66
2023/03/31 00:37:33;;;;;;;;;;;10.70;99.90;;;;;;5109000;28;19911;-66
2023/03/31 00:39:59;;;;;;;;;;;10.60;99.90;;;;;;5109108;27;19911;-66
2023/03/31 00:42:24;;;;;;;;;;;10.60;99.90;;;;;;5106331;28;19911;-66
2023/03/31 00:45:09;;;;;;;;;;;10.60;99.90;;;;;;5105885;28;19912;-66
2023/03/31 00:47:34;;;;;;;;;;;10.60;99.90;;;;;;5107674;28;19919;-66
2023/03/31 00:50:00;;;;;;;;;;;10.60;99.90;;;;;;5109188;28;19915;-66
2023/03/31 00:52:29;;;;;;;;;;;10.60;99.90;;;;;;5108784;28;20002;-66
2023/03/31 00:54:57;;;;;;;;;;;10.60;99.90;;;;;;5109087;28;20460;-66
2023/03/31 00:57:27;;;;;;;;;;;10.60;99.90;;;;;;5108544;28;20276;-66
2023/03/31 00:59:56;;;;;;;;;;;10.60;99.90;;;;;;5107572;28;19951;-66
2023/03/31 01:02:24;;;;;;;;;;;10.60;99.90;;;;;;5107867;28;19920;-66
2023/03/31 01:05:00;;;;;;;;;;;10.60;99.90;;;;;;5107635;28;19918;-66
2023/03/31 01:07:38;;;;;;;;;;;10.60;99.90;;;;;;5108853;28;19920;-66
2023/03/31 01:10:04;;;;;;;;;;;10.60;99.90;;;;;;5108758;28;20712;-66
2023/03/31 01:12:31;;;;;;;;;;;10.60;99.80;;;;;;5108406;28;19915;-66
2023/03/31 01:14:57;;;;;;;;;;;10.60;99.80;;;;;;5106946;28;20546;-66
2023/03/31 01:17:23;;;;;;;;;;;10.60;99.90;;;;;;5105570;27;19915;-65
2023/03/31 01:19:50;;;;;;;;;;;10.60;99.90;;;;;;5103443;28;19980;-66
2023/03/31 01:22:16;;;;;;;;;;;10.60;99.90;;;;;;5108098;28;19916;-66
2023/03/31 01:24:46;;;;;;;;;;;10.60;99.80;;;;;;5097673;28;19918;-66
2023/03/31 01:27:30;;;;;;;;;;;10.60;99.80;;;;;;5095797;28;19926;-66
2023/03/31 01:30:11;;;;;;;;;;;10.60;99.80;;;;;;5107058;28;19911;-66
2023/03/31 01:32:36;;;;;;;;;;;10.60;99.80;;;;;;5107714;28;19918;-66
2023/03/31 01:35:02;;;;;;;;;;;10.60;99.90;;;;;;5107974;28;19938;-66
2023/03/31 01:37:47;;;;;;;;;;;10.50;99.90;;;;;;5092237;28;20242;-66
2023/03/31 01:40:15;;;;;;;;;;;10.50;99.90;;;;;;5093850;28;20384;-66
2023/03/31 01:42:49;;;;;;;;;;;10.50;99.90;;;;;;5106654;28;19915;-66
2023/03/31 01:45:23;;;;;;;;;;;10.50;99.90;;;;;;5090720;28;19912;-66
2023/03/31 01:47:53;;;;;;;;;;;10.50;99.90;;;;;;5107457;28;19916;-66
2023/03/31 01:50:24;;;;;;;;;;;10.50;99.90;;;;;;5107719;28;19947;-66
2023/03/31 01:53:08;;;;;;;;;;;10.50;99.80;;;;;;5107829;28;19939;-66
2023/03/31 01:56:03;;;;;;;;;;;10.50;99.90;;;;;;5108147;28;19953;-66
2023/03/31 01:58:37;;;;;;;;;;;10.50;99.90;;;;;;5098264;28;19908;-66
2023/03/31 02:01:29;;;;;;;;;;;10.50;99.90;;;;;;5107706;28;20384;-66
2023/03/31 02:04:07;;;;;;;;;;;10.50;99.90;;;;;;5081015;28;19979;-66
2023/03/31 02:06:34;;;;;;;;;;;10.50;99.90;;;;;;5086125;28;19908;-66
2023/03/31 02:09:05;;;;;;;;;;;10.50;99.90;;;;;;5089469;28;20002;-66
2023/03/31 02:11:32;;;;;;;;;;;10.50;99.90;;;;;;5111199;28;19911;-66
2023/03/31 02:14:01;;;;;;;;;;;10.50;99.90;;;;;;5111236;28;19927;-66
2023/03/31 02:16:27;;;;;;;;;;;10.50;99.90;;;;;;5103261;28;19974;-66
2023/03/31 02:19:01;;;;;;;;;;;10.50;99.90;;;;;;5111592;28;19908;-66
2023/03/31 02:21:31;;;;;;;;;;;10.40;99.90;;;;;;5111423;28;19923;-66
2023/03/31 02:23:57;;;;;;;;;;;10.50;99.90;;;;;;5111537;28;19995;-66
2023/03/31 02:26:24;;;;;;;;;;;10.40;99.90;;;;;;5111936;28;19957;-66
2023/03/31 02:28:50;;;;;;;;;;;10.50;99.90;;;;;;5111416;28;20383;-66
2023/03/31 02:31:34;;;;;;;;;;;10.40;99.90;;;;;;5111722;28;20002;-66
2023/03/31 02:34:00;;;;;;;;;;;10.40;99.90;;;;;;5111259;28;19912;-66
2023/03/31 02:36:25;;;;;;;;;;;10.40;99.90;;;;;;5111612;28;19912;-66
2023/03/31 02:38:56;;;;;;;;;;;10.40;99.90;;;;;;5111382;28;19919;-66
2023/03/31 02:41:22;;;;;;;;;;;10.40;99.90;;;;;;5111001;28;19911;-66
2023/03/31 02:43:47;;;;;;;;;;;10.40;99.90;;;;;;5109633;28;19922;-66
2023/03/31 02:46:13;;;;;;;;;;;10.40;99.90;;;;;;5111394;28;19912;-66
2023/03/31 02:48:42;;;;;;;;;;;10.40;99.90;;;;;;5111201;28;19915;-66
2023/03/31 02:51:07;;;;;;;;;;;10.40;99.90;;;;;;5111316;28;19912;-66
2023/03/31 02:53:51;;;;;;;;;;;10.40;99.90;;;;;;5110836;28;20325;-66
2023/03/31 02:56:26;;;;;;;;;;;10.40;99.90;;;;;;5111361;28;19923;-66
2023/03/31 02:58:57;;;;;;;;;;;10.40;99.90;;;;;;5110674;27;20577;-66
2023/03/31 03:01:33;;;;;;;;;;;10.40;99.90;;;;;;5110803;28;20279;-66
2023/03/31 03:04:05;;;;;;;;;;;10.40;99.90;;;;;;5110772;28;19918;-66
2023/03/31 03:06:42;;;;;;;;;;;10.40;99.90;;;;;;5111001;28;19918;-66
2023/03/31 03:09:28;;;;;;;;;;;10.40;99.90;;;;;;5110775;28;19919;-66
2023/03/31 03:12:12;;;;;;;;;;;10.40;99.90;;;;;;5110602;28;19912;-66
2023/03/31 03:14:53;;;;;;;;;;;10.40;99.90;;;;;;5105209;28;19911;-66
2023/03/31 03:17:35;;;;;;;;;;;10.40;99.90;;;;;;5110871;28;20269;-66
2023/03/31 03:20:01;;;;;;;;;;;10.40;99.90;;;;;;5110911;28;19951;-66
2023/03/31 03:22:26;;;;;;;;;;;10.40;99.90;;;;;;5108235;28;19920;-66
2023/03/31 03:24:52;;;;;;;;;;;10.40;99.90;;;;;;5110930;28;19920;-66
2023/03/31 03:27:18;;;;;;;;;;;10.30;99.90;;;;;;5110844;28;19908;-66
2023/03/31 03:29:44;;;;;;;;;;;10.30;99.90;;;;;;5110952;28;19961;-66
2023/03/31 03:32:10;;;;;;;;;;;10.30;99.90;;;;;;5110564;28;19951;-66
2023/03/31 03:34:36;;;;;;;;;;;10.30;99.90;;;;;;5110655;28;19934;-66
2023/03/31 03:37:01;;;;;;;;;;;10.30;99.90;;;;;;5110291;28;20231;-66
2023/03/31 03:39:26;;;;;;;;;;;10.30;99.90;;;;;;5109369;28;20898;-66
2023/03/31 03:41:52;;;;;;;;;;;10.30;99.90;;;;;;5109882;28;19941;-66
2023/03/31 03:44:18;;;;;;;;;;;10.30;99.90;;;;;;5109768;28;19918;-66
2023/03/31 03:46:43;;;;;;;;;;;10.30;99.90;;;;;;5110430;28;19908;-66
2023/03/31 03:49:09;;;;;;;;;;;10.30;99.90;;;;;;5110166;27;19911;-66
2023/03/31 03:51:34;;;;;;;;;;;10.30;99.90;;;;;;5110105;28;19918;-66
2023/03/31 03:54:00;;;;;;;;;;;10.30;99.90;;;;;;5109932;28;20495;-66
2023/03/31 03:56:26;;;;;;;;;;;10.30;99.90;;;;;;5108605;28;19911;-66
2023/03/31 03:58:51;;;;;;;;;;;10.30;99.90;;;;;;5109892;28;19923;-66
2023/03/31 04:01:17;;;;;;;;;;;10.30;99.90;;;;;;5109859;28;19916;-66
2023/03/31 04:03:43;;;;;;;;;;;10.30;99.90;;;;;;5109901;28;19947;-66
2023/03/31 04:06:08;;;;;;;;;;;10.20;99.90;;;;;;5110174;28;19912;-66
2023/03/31 04:08:34;;;;;;;;;;;10.30;99.90;;;;;;5109408;28;19951;-66
2023/03/31 04:11:00;;;;;;;;;;;10.20;99.90;;;;;;5109801;28;19915;-66
2023/03/31 04:13:25;;;;;;;;;;;10.20;99.90;;;;;;5102709;28;19918;-66
2023/03/31 04:15:51;;;;;;;;;;;10.30;99.90;;;;;;5109616;28;19992;-66
2023/03/31 04:18:22;;;;;;;;;;;10.20;99.90;;;;;;5109694;28;19966;-66
2023/03/31 04:21:02;;;;;;;;;;;10.20;99.90;;;;;;5108074;28;19922;-66
2023/03/31 04:23:32;;;;;;;;;;;10.20;99.90;;;;;;5108030;28;19990;-66
2023/03/31 04:25:57;;;;;;;;;;;10.20;99.90;;;;;;5109653;28;19922;-66
2023/03/31 04:28:25;;;;;;;;;;;10.20;99.90;;;;;;5109147;28;19912;-66
2023/03/31 04:30:53;;;;;;;;;;;10.20;99.90;;;;;;5109169;28;19919;-66
2023/03/31 04:33:20;;;;;;;;;;;10.20;99.90;;;;;;5109093;28;19940;-66
2023/03/31 04:35:48;;;;;;;;;;;10.20;99.90;;;;;;5109604;28;19915;-66
2023/03/31 04:38:18;;;;;;;;;;;10.20;99.90;;;;;;5109716;28;19960;-66
2023/03/31 04:40:47;;;;;;;;;;;10.20;99.90;;;;;;5108978;28;20322;-66
2023/03/31 04:43:13;;;;;;;;;;;10.20;99.90;;;;;;5109136;28;19969;-66
2023/03/31 04:45:39;;;;;;;;;;;10.20;99.90;;;;;;5109323;28;20344;-66
2023/03/31 04:48:04;;;;;;;;;;;10.20;99.90;;;;;;5108937;28;20440;-66
2023/03/31 04:50:31;;;;;;;;;;;10.20;99.90;;;;;;5108496;28;20622;-66
2023/03/31 04:52:57;;;;;;;;;;;10.20;99.90;;;;;;5108933;28;20606;-66
2023/03/31 04:55:23;;;;;;;;;;;10.20;99.90;;;;;;5109217;28;19911;-66
2023/03/31 04:57:48;;;;;;;;;;;10.20;99.90;;;;;;5108663;28;19914;-66
2023/03/31 05:00:14;;;;;;;;;;;10.20;99.90;;;;;;5109089;28;20004;-66
2023/03/31 05:02:40;;;;;;;;;;;10.10;99.90;;;;;;5108281;28;20060;-66
2023/03/31 05:05:05;;;;;;;;;;;10.10;99.90;;;;;;5109090;28;19912;-66
2023/03/31 05:07:31;;;;;;;;;;;10.10;99.90;;;;;;5107423;28;19912;-66
2023/03/31 05:09:56;;;;;;;;;;;10.10;99.90;;;;;;5108927;28;20132;-66
2023/03/31 05:12:22;;;;;;;;;;;10.10;99.90;;;;;;5108187;28;19912;-66
2023/03/31 05:14:47;;;;;;;;;;;10.10;99.90;;;;;;5108171;28;19916;-66
2023/03/31 05:17:13;;;;;;;;;;;10.10;99.90;;;;;;5108388;28;19912;-66
2023/03/31 05:19:38;;;;;;;;;;;10.10;99.90;;;;;;5108181;28;19984;-66
2023/03/31 05:22:04;;;;;;;;;;;10.10;99.90;;;;;;5108213;28;19920;-66
2023/03/31 05:24:30;;;;;;;;;;;10.10;99.90;;;;;;5108505;28;19918;-66
2023/03/31 05:26:56;;;;;;;;;;;10.10;99.90;;;;;;5108677;28;19965;-66
2023/03/31 05:29:22;;;;;;;;;;;10.10;99.90;;;;;;5108369;28;20512;-66
2023/03/31 05:31:48;;;;;;;;;;;10.10;99.90;;;;;;5106862;28;19923;-66
2023/03/31 05:34:14;;;;;;;;;;;10.10;99.90;;;;;;5108190;28;20276;-66
2023/03/31 05:36:39;;;;;;;;;;;10.10;99.90;;;;;;5108170;28;19923;-66
2023/03/31 05:39:05;;;;;;;;;;;10.10;99.90;;;;;;5108318;28;19911;-66
2023/03/31 05:41:30;;;;;;;;;;;10.10;99.90;;;;;;5107008;28;19916;-66
2023/03/31 05:43:56;;;;;;;;;;;10.10;99.90;;;;;;5107303;28;19912;-66
2023/03/31 05:46:21;;;;;;;;;;;10.10;99.90;;;;;;5107711;28;20299;-66
2023/03/31 05:48:47;;;;;;;;;;;10.10;99.90;;;;;;5107823;28;19919;-66
2023/03/31 05:51:12;;;;;;;;;;;10.10;99.90;;;;;;5108125;28;19908;-66
2023/03/31 05:53:38;;;;;;;;;;;10.10;99.90;;;;;;5108113;28;20317;-66
2023/03/31 05:56:05;;;;;;;;;;;10.10;99.90;;;;;;5108433;28;19915;-66
2023/03/31 05:58:32;;;;;;;;;;;10.10;99.90;;;;;;5108134;28;19943;-66
2023/03/31 06:01:04;;;;;;;;;;;10.10;99.90;;;;;;5108163;28;20550;-66
2023/03/31 06:03:31;;;;;;;;;;;10.10;99.90;;;;;;5107344;28;19959;-66
2023/03/31 06:05:56;;;;;;;;;;;10.00;99.90;;;;;;5108105;28;19916;-66
2023/03/31 06:08:22;;;;;;;;;;;10.10;99.90;;;;;;5108066;28;19968;-66
2023/03/31 06:10:47;;;;;;;;;;;10.10;99.90;;;;;;5107477;28;19923;-66
2023/03/31 06:13:12;;;;;;;;;;;10.10;99.90;;;;;;5106999;28;20462;-66
2023/03/31 06:15:38;;;;;;;;;;;10.10;99.90;;;;;;5106433;28;19912;-66
2023/03/31 06:18:06;;;;;;;;;;;10.00;99.90;;;;;;5107834;28;20721;-66
2023/03/31 06:20:31;;;;;;;;;;;10.10;99.90;;;;;;5107918;28;19969;-66
2023/03/31 06:22:57;;;;;;;;;;;10.00;99.90;;;;;;5107621;28;19919;-66
2023/03/31 06:25:22;;;;;;;;;;;10.00;99.90;;;;;;5108180;28;19985;-66
2023/03/31 06:27:48;;;;;;;;;;;10.10;99.90;;;;;;5107795;28;19915;-66
2023/03/31 06:30:14;;;;;;;;;;;10.00;99.90;;;;;;5108215;28;19907;-66
2023/03/31 06:32:39;;;;;;;;;;;10.00;99.90;;;;;;5107525;28;20261;-66
2023/03/31 06:35:05;;;;;;;;;;;10.00;99.90;;;;;;5107847;28;20050;-66
2023/03/31 06:37:30;;;;;;;;;;;10.00;99.90;;;;;;5107701;28;19912;-66
2023/03/31 06:39:56;;;;;;;;;;;10.00;99.90;;;;;;5107778;28;19912;-66
2023/03/31 06:42:21;;;;;;;;;;;10.00;99.90;;;;;;5107474;28;19915;-66
2023/03/31 06:44:47;;;;;;;;;;;10.00;99.90;;;;;;5107667;28;20002;-66
2023/03/31 06:47:12;;;;;;;;;;;10.00;99.90;;;;;;5107829;28;19908;-66
2023/03/31 06:49:38;;;;;;;;;;;10.00;99.90;;;;;;5108019;28;20249;-66
2023/03/31 06:52:04;;;;;;;;;;;10.00;99.90;;;;;;5107460;28;19908;-66
2023/03/31 06:54:29;;;;;;;;;;;10.00;99.90;;;;;;5107444;28;19965;-66
2023/03/31 06:56:55;;;;;;;;;;;10.00;99.90;;;;;;5108367;28;20438;-66
2023/03/31 06:59:20;;;;;;;;;;;10.00;99.90;;;;;;5111148;28;19912;-66
2023/03/31 07:01:47;;;;;;;;;;;10.00;99.90;;;;;;5110910;27;19923;-66
2023/03/31 07:04:12;;;;;;;;;;;10.00;99.90;;;;;;5110636;28;19916;-66
2023/03/31 07:06:38;;;;;;;;;;;10.00;99.90;;;;;;5110871;28;20261;-66
2023/03/31 07:09:03;;;;;;;;;;;10.00;99.90;;;;;;5110537;28;19911;-66
2023/03/31 07:11:29;;;;;;;;;;;10.00;99.90;;;;;;5110029;28;19922;-66
2023/03/31 07:13:54;;;;;;;;;;;10.00;99.90;;;;;;5109930;28;19912;-66
2023/03/31 07:16:20;;;;;;;;;;;10.00;99.90;;;;;;5108035;27;19926;-66
2023/03/31 07:18:45;;;;;;;;;;;10.00;99.90;;;;;;5096380;27;20018;-66
2023/03/31 07:21:11;;;;;;;;;;;10.00;99.90;;;;;;5105071;28;19919;-66
2023/03/31 07:23:36;;;;;;;;;;;10.00;99.90;;;;;;5108296;28;20026;-66
2023/03/31 07:26:02;;;;;;;;;;;10.00;99.90;;;;;;5109185;28;19923;-66
2023/03/31 07:28:28;;;;;;;;;;;10.00;99.90;;;;;;5109492;28;20335;-66
2023/03/31 07:30:53;;;;;;;;;;;10.00;99.90;;;;;;5109582;28;20042;-66
2023/03/31 07:33:19;;;;;;;;;;;10.00;99.90;;;;;;5109931;28;19922;-66
2023/03/31 07:35:44;;;;;;;;;;;10.00;99.90;;;;;;5109898;27;19911;-66
2023/03/31 07:38:11;;;;;;;;;;;10.00;99.90;;;;;;5108471;28;19911;-66
2023/03/31 07:40:37;;;;;;;;;;;10.00;99.90;;;;;;5108448;28;20006;-66
2023/03/31 07:43:03;;;;;;;;;;;10.00;99.90;;;;;;5109753;28;19964;-66
2023/03/31 07:45:28;;;;;;;;;;;10.00;99.90;;;;;;5109554;28;19975;-66
2023/03/31 07:47:54;;;;;;;;;;;10.00;99.90;;;;;;5108224;28;19919;-66
2023/03/31 07:50:20;;;;;;;;;;;10.00;99.90;;;;;;5109370;28;19912;-66
2023/03/31 07:52:46;;;;;;;;;;;10.00;99.90;;;;;;5109471;28;19922;-66
2023/03/31 07:55:12;;;;;;;;;;;10.00;99.90;;;;;;5109883;28;19912;-66
2023/03/31 07:57:37;;;;;;;;;;;10.00;99.90;;;;;;5109722;28;20003;-66
2023/03/31 08:00:06;;;;;;;;;;;10.10;99.90;;;;;;5109878;28;19958;-66
2023/03/31 08:02:32;;;;;;;;;;;10.00;99.90;;;;;;5109650;28;19922;-66
2023/03/31 08:04:57;;;;;;;;;;;10.00;99.90;;;;;;5109832;28;19912;-67
2023/03/31 08:07:24;;;;;;;;;;;10.10;99.90;;;;;;5109559;28;19994;-66
2023/03/31 08:09:50;;;;;;;;;;;10.00;99.90;;;;;;5108124;28;19912;-66
2023/03/31 08:12:15;;;;;;;;;;;10.00;99.90;;;;;;5106094;28;20626;-66
2023/03/31 08:14:41;;;;;;;;;;;10.10;99.90;;;;;;5103968;28;20257;-67
2023/03/31 08:17:06;;;;;;;;;;;10.10;99.90;;;;;;5108953;28;20413;-66
2023/03/31 08:19:32;;;;;;;;;;;10.10;99.90;;;;;;5106927;28;19920;-66
2023/03/31 08:21:57;;;;;;;;;;;10.10;99.90;;;;;;5109071;28;20014;-66
2023/03/31 08:24:23;;;;;;;;;;;10.10;99.90;;;;;;5106776;28;19968;-66
2023/03/31 08:26:48;;;;;;;;;;;10.10;99.90;;;;;;5109165;28;20369;-66
2023/03/31 08:29:14;;;;;;;;;;;10.10;99.90;;;;;;5109212;28;19998;-66
2023/03/31 08:31:39;;;;;;;;;;;10.20;99.90;;;;;;5109080;28;19911;-66
2023/03/31 08:34:05;;;;;;;;;;;10.20;99.90;;;;;;5108997;28;20006;-66
2023/03/31 08:36:32;;;;;;;;;;;10.20;99.90;;;;;;5109373;28;19911;-66
2023/03/31 08:38:57;;;;;;;;;;;10.20;99.90;;;;;;5109107;28;19912;-66
2023/03/31 08:41:41;;;;;;;;;;;10.20;99.90;;;;;;5108921;28;20263;-67
2023/03/31 08:44:29;;;;;;;;;;;10.30;99.90;;;;;;5108655;28;19991;-66
2023/03/31 08:46:56;;;;;;;;;;;10.30;99.90;;;;;;5107234;28;20396;-66
2023/03/31 08:49:22;;;;;;;;;;;10.30;99.90;;;;;;5108570;28;19911;-66
2023/03/31 08:51:50;;;;;;;;;;;10.30;99.90;;;;;;5108733;28;19919;-66
2023/03/31 08:54:48;;;;;;;;;;;10.30;99.90;;;;;;5108583;28;19912;-66
2023/03/31 08:57:35;;;;;;;;;;;10.30;99.90;;;;;;5084197;28;19911;-66
2023/03/31 09:00:05;;;;;;;;;;;10.30;99.90;;;;;;5108566;28;19912;-66
2023/03/31 09:02:51;;;;;;;;;;;10.30;99.90;;;;;;5108353;28;20023;-66
2023/03/31 09:05:21;;;;;;;;;;;10.30;99.90;;;;;;5108529;28;19919;-66
2023/03/31 09:07:50;;;;;;;;;;;10.30;99.90;;;;;;5108765;28;19912;-66
2023/03/31 09:10:18;;;;;;;;;;;10.30;99.90;;;;;;5108318;28;19913;-66
2023/03/31 09:12:44;;;;;;;;;;;10.30;99.90;;;;;;5107555;28;19953;-66
2023/03/31 09:15:12;;;;;;;;;;;10.30;99.90;;;;;;5106118;28;20361;-66
2023/03/31 09:17:40;;;;;;;;;;;10.30;99.90;;;;;;5108712;28;19969;-66
2023/03/31 09:20:12;;;;;;;;;;;10.30;99.90;;;;;;5107100;28;19919;-66
2023/03/31 09:22:44;;;;;;;;;;;10.30;99.90;;;;;;5106805;28;20014;-67
2023/03/31 09:25:16;;;;;;;;;;;10.40;99.90;;;;;;5107526;28;19911;-66
2023/03/31 09:27:43;;;;;;;;;;;10.30;99.90;;;;;;5105620;28;19974;-66
2023/03/31 09:30:19;;;;;;;;;;;10.40;99.90;;;;;;5106942;28;19919;-66
2023/03/31 09:32:46;;;;;;;;;;;10.40;99.90;;;;;;5104836;28;20056;-66
2023/03/31 09:35:11;;;;;;;;;;;10.40;99.90;;;;;;5106218;28;20396;-66
2023/03/31 09:37:37;;;;;;;;;;;10.50;99.90;;;;;;5107156;28;19920;-66
2023/03/31 09:40:06;;;;;;;;;;;10.50;99.90;;;;;;5107084;28;20264;-66
2023/03/31 09:42:35;;;;;;;;;;;10.50;99.90;;;;;;5106731;28;19916;-66
2023/03/31 09:45:00;;;;;;;;;;;10.60;99.90;;;;;;5106884;28;19912;-66
2023/03/31 09:47:31;;;;;;;;;;;10.60;99.90;;;;;;5107238;28;19971;-66
2023/03/31 09:49:56;;;;;;;;;;;10.60;99.90;;;;;;5107111;28;20286;-66
2023/03/31 09:52:21;;;;;;;;;;;10.60;99.90;;;;;;5107588;28;19912;-66
2023/03/31 09:54:49;;;;;;;;;;;10.70;99.90;;;;;;5107360;28;19951;-66
2023/03/31 09:57:23;;;;;;;;;;;10.70;99.90;;;;;;5107261;28;19942;-66
2023/03/31 09:59:51;;;;;;;;;;;10.70;99.90;;;;;;5107433;28;20361;-67
2023/03/31 10:02:17;;;;;;;;;;;10.70;99.90;;;;;;5106332;28;19916;-66
2023/03/31 10:04:45;;;;;;;;;;;10.70;99.90;;;;;;5107837;28;20460;-66
2023/03/31 10:07:11;;;;;;;;;;;10.70;99.90;;;;;;5107912;28;20026;-66
2023/03/31 10:09:37;;;;;;;;;;;10.70;99.90;;;;;;5107198;28;20002;-66
2023/03/31 10:12:07;;;;;;;;;;;10.70;99.90;;;;;;5106211;28;19908;-66
2023/03/31 10:14:42;;;;;;;;;;;10.70;99.90;;;;;;5105878;28;20455;-66
2023/03/31 10:17:12;;;;;;;;;;;10.80;99.90;;;;;;5099742;28;20857;-66
2023/03/31 10:19:45;;;;;;;;;;;10.80;99.90;;;;;;5104579;28;19923;-66
2023/03/31 10:22:20;;;;;;;;;;;10.80;99.90;;;;;;5104728;28;20400;-66
2023/03/31 10:24:46;;;;;;;;;;;10.80;99.90;;;;;;5107225;28;19919;-66
2023/03/31 10:27:22;;;;;;;;;;;10.90;99.90;;;;;;5107691;28;19911;-66
2023/03/31 10:29:50;;;;;;;;;;;10.90;99.90;;;;;;5104600;28;20006;-66
2023/03/31 10:32:19;;;;;;;;;;;10.90;99.90;;;;;;5109997;28;20562;-66
2023/03/31 10:34:45;;;;;;;;;;;11.00;99.90;;;;;;5110956;28;19908;-66
2023/03/31 10:37:14;;;;;;;;;;;11.00;99.90;;;;;;5111218;28;19908;-66
2023/03/31 10:39:41;;;;;;;;;;;11.00;99.80;;;;;;5111227;28;19926;-66
2023/03/31 10:42:07;;;;;;;;;;;11.00;99.90;;;;;;5111250;28;19951;-66
2023/03/31 10:44:32;;;;;;;;;;;11.10;99.90;;;;;;5111362;28;20060;-66
2023/03/31 10:47:17;;;;;;;;;;;11.10;99.90;;;;;;5111441;28;19960;-66
2023/03/31 10:49:43;;;;;;;;;;;11.20;99.90;;;;;;5111280;28;20007;-66
2023/03/31 10:52:16;;;;;;;;;;;11.30;99.80;;;;;;5111243;28;19915;-66
2023/03/31 10:54:46;;;;;;;;;;;11.40;99.70;;;;;;5111403;28;19912;-66
2023/03/31 10:57:11;;;;;;;;;;;11.40;99.70;;;;;;5111334;28;20309;-66
2023/03/31 10:59:37;;;;;;;;;;;11.50;99.70;;;;;;5111096;28;19920;-66
2023/03/31 11:02:20;;;;;;;;;;;11.50;99.80;;;;;;5110960;28;19912;-66
2023/03/31 11:04:49;;;;;;;;;;;11.50;99.60;;;;;;5110444;28;19919;-66
2023/03/31 11:07:28;;;;;;;;;;;11.60;99.50;;;;;;5110923;28;20396;-66
2023/03/31 11:10:19;;;;;;;;;;;11.70;99.60;;;;;;5110105;28;20015;-66
2023/03/31 11:12:53;;;;;;;;;;;11.80;99.80;;;;;;5102202;28;20482;-66
2023/03/31 11:15:30;;;;;;;;;;;11.90;99.30;;;;;;5108886;28;20398;-66
2023/03/31 11:17:58;;;;;;;;;;;12.00;99.20;;;;;;5110403;28;19916;-66
2023/03/31 11:20:26;;;;;;;;;;;12.10;99.60;;;;;;5109926;28;20599;-66
2023/03/31 11:23:00;;;;;;;;;;;12.10;99.00;;;;;;5102704;28;19956;-66
2023/03/31 11:25:38;;;;;;;;;;;12.20;99.50;;;;;;5110304;28;20030;-66
2023/03/31 11:28:15;;;;;;;;;;;12.10;99.50;;;;;;5110566;28;19964;-66
2023/03/31 11:30:53;;;;;;;;;;;12.10;99.70;;;;;;5106273;28;20011;-66
2023/03/31 11:33:24;;;;;;;;;;;12.10;99.90;;;;;;5110200;28;19918;-66
2023/03/31 11:35:52;;;;;;;;;;;12.00;99.90;;;;;;5110129;28;20004;-66
2023/03/31 11:38:37;;;;;;;;;;;12.00;99.90;;;;;;5109826;28;19922;-66
2023/03/31 11:41:18;;;;;;;;;;;12.00;99.90;;;;;;5107411;28;19919;-66
2023/03/31 11:43:55;;;;;;;;;;;11.90;99.90;;;;;;5106689;28;20337;-66
2023/03/31 11:46:32;;;;;;;;;;;11.90;99.90;;;;;;5105712;28;19916;-66
2023/03/31 11:49:10;;;;;;;;;;;11.90;99.90;;;;;;5109803;28;20262;-66
2023/03/31 11:51:55;;;;;;;;;;;11.90;99.90;;;;;;5107009;28;20401;-66
2023/03/31 11:54:23;;;;;;;;;;;11.80;99.90;;;;;;5109039;28;20614;-67
2023/03/31 11:56:49;;;;;;;;;;;11.90;99.90;;;;;;5107260;28;19912;-66
2023/03/31 11:59:17;;;;;;;;;;;11.90;99.90;;;;;;5108270;28;19912;-66
2023/03/31 12:01:42;;;;;;;;;;;11.90;99.90;;;;;;5109527;28;19919;-66
2023/03/31 12:04:24;;;;;;;;;;;12.00;99.90;;;;;;5109617;28;20264;-66
2023/03/31 12:06:51;;;;;;;;;;;12.00;99.90;;;;;;5107471;28;19978;-66
2023/03/31 12:09:26;;;;;;;;;;;12.10;99.80;;;;;;5098859;27;20410;-66
2023/03/31 12:11:58;;;;;;;;;;;12.10;99.70;;;;;;5109465;27;19923;-66
2023/03/31 12:14:32;;;;;;;;;;;12.20;99.60;;;;;;5102406;28;19912;-66
2023/03/31 12:17:23;;;;;;;;;;;12.30;99.60;;;;;;5109712;28;19911;-66
2023/03/31 12:19:52;;;;;;;;;;;12.30;99.60;;;;;;5106811;28;19920;-66
2023/03/31 12:22:21;;;;;;;;;;;12.30;99.60;;;;;;5109256;28;19919;-66
2023/03/31 12:24:46;;;;;;;;;;;12.30;99.50;;;;;;5108161;28;19908;-66
2023/03/31 12:27:20;;;;;;;;;;;12.40;99.60;;;;;;5109435;28;19912;-66
2023/03/31 12:29:55;;;;;;;;;;;12.40;99.40;;;;;;5109071;28;19918;-66
2023/03/31 12:32:22;;;;;;;;;;;12.50;99.40;;;;;;5108963;28;19962;-67
2023/03/31 12:34:55;;;;;;;;;;;12.50;99.40;;;;;;5108976;28;19916;-66
2023/03/31 12:37:39;;;;;;;;;;;12.50;99.50;;;;;;5109191;28;19954;-66
2023/03/31 12:40:14;;;;;;;;;;;12.50;99.50;;;;;;5106489;28;19959;-66
2023/03/31 12:42:39;;;;;;;;;;;12.40;99.40;;;;;;5108640;28;20797;-66
2023/03/31 12:45:05;;;;;;;;;;;12.40;99.40;;;;;;5108843;28;20003;-67
2023/03/31 12:47:34;;;;;;;;;;;12.40;99.50;;;;;;5109263;28;20304;-66
2023/03/31 12:50:18;;;;;;;;;;;12.40;99.50;;;;;;5109086;28;19911;-66
2023/03/31 12:52:46;;;;;;;;;;;12.40;99.70;;;;;;5109220;28;19940;-66
2023/03/31 12:55:30;;;;;;;;;;;12.40;99.70;;;;;;5109023;28;19908;-66
2023/03/31 12:58:20;;;;;;;;;;;12.40;99.80;;;;;;5108733;28;19915;-66
2023/03/31 13:01:05;;;;;;;;;;;12.30;99.80;;;;;;5103004;28;19919;-66
2023/03/31 13:03:36;;;;;;;;;;;12.30;99.90;;;;;;5107334;28;20010;-66
2023/03/31 13:06:03;;;;;;;;;;;12.30;99.90;;;;;;5107874;28;19912;-67
2023/03/31 13:08:48;;;;;;;;;;;12.30;99.90;;;;;;5108733;28;19999;-67
2023/03/31 13:11:15;;;;;;;;;;;12.40;99.90;;;;;;5108767;28;19911;-66
2023/03/31 13:13:44;;;;;;;;;;;12.40;99.90;;;;;;5106529;28;19911;-67
2023/03/31 13:16:09;;;;;;;;;;;12.40;99.90;;;;;;5108431;28;19928;-66
2023/03/31 13:18:35;;;;;;;;;;;12.50;99.90;;;;;;5108602;28;20535;-66
2023/03/31 13:21:04;;;;;;;;;;;12.50;99.70;;;;;;5107452;28;19919;-66
2023/03/31 13:23:34;;;;;;;;;;;12.60;99.70;;;;;;5107810;28;20206;-66
2023/03/31 13:26:00;;;;;;;;;;;12.70;99.60;;;;;;5108969;28;20367;-66
2023/03/31 13:28:26;;;;;;;;;;;12.70;99.60;;;;;;5108618;28;19916;-66
2023/03/31 13:30:52;;;;;;;;;;;12.80;99.40;;;;;;5108747;28;20600;-66
2023/03/31 13:33:44;;;;;;;;;;;12.80;99.20;;;;;;5107142;28;19944;-66
2023/03/31 13:36:28;;;;;;;;;;;12.80;99.20;;;;;;5106203;28;19916;-66
2023/03/31 13:38:57;;;;;;;;;;;12.80;99.40;;;;;;5106909;28;19919;-66
2023/03/31 13:41:55;;;;;;;;;;;12.90;99.50;;;;;;5108035;28;19919;-66
2023/03/31 13:44:20;;;;;;;;;;;12.90;99.30;;;;;;5064356;28;19916;-66
2023/03/31 13:46:46;;;;;;;;;;;12.90;99.40;;;;;;5103734;28;20371;-66
2023/03/31 13:49:11;;;;;;;;;;;12.90;99.50;;;;;;5108123;28;19919;-66
2023/03/31 13:51:43;;;;;;;;;;;12.90;99.40;;;;;;5108074;28;19923;-66
2023/03/31 13:54:20;;;;;;;;;;;12.90;99.50;;;;;;5108277;28;19912;-66
2023/03/31 13:57:04;;;;;;;;;;;12.90;99.40;;;;;;5106966;28;20381;-66
2023/03/31 13:59:30;;;;;;;;;;;12.90;99.40;;;;;;5108202;28;19950;-66
2023/03/31 14:02:02;;;;;;;;;;;12.90;99.40;;;;;;5108002;28;19962;-66
2023/03/31 14:04:45;;;;;;;;;;;12.90;99.40;;;;;;5108111;28;20342;-66
2023/03/31 14:07:14;;;;;;;;;;;12.90;99.30;;;;;;5109725;28;19957;-66
2023/03/31 14:09:42;;;;;;;;;;;12.90;99.60;;;;;;5112396;28;19912;-66
2023/03/31 14:12:21;;;;;;;;;;;12.90;99.50;;;;;;5111324;28;19918;-66
2023/03/31 14:14:51;;;;;;;;;;;12.90;99.40;;;;;;5107623;28;19915;-66
2023/03/31 14:17:17;;;;;;;;;;;12.90;99.50;;;;;;5111866;28;20003;-66
2023/03/31 14:20:06;;;;;;;;;;;12.90;99.50;;;;;;5111243;28;20382;-66
2023/03/31 14:22:37;;;;;;;;;;;12.90;99.90;;;;;;5111620;28;19912;-66
2023/03/31 14:25:29;;;;;;;;;;;12.90;99.60;;;;;;5111660;28;19983;-66
2023/03/31 14:28:15;;;;;;;;;;;12.90;99.60;;;;;;5109538;28;19912;-66
2023/03/31 14:30:47;;;;;;;;;;;12.90;99.60;;;;;;5111181;28;19912;-66